Accueil
METAR-TAF:

METAR-TAF

Aéroports :

Hermosillo, Mexique

latitude: 29-04N, longitude: 110-57W, altitude: 211 m

Observation

Le bulletin a été fait il y a 46 minutes, à 10:41 UTC
Vent 5 kt de sud/sud-est
Température 16°C
Humidité 48%
Pression 1015 hPa
Visibilité: 16.1 km
Ciel clair

METAR: MMHO 211041Z 15005KT 10SM SKC 16/05 A2996 RMK HZY

Heure: 04:27 (11:27 UTC)

Prévision

Le bulletin a été fait il y a 8 heures et 20 minutes, à 03:07 UTC
Prévision valable du 21 à 06 UTC au 22 à 06 UTC
Vent 7 kt de ouest
Visibilité: 10 km
Nuages épars à une hauteur de 25000 ft
A partir de 21 à 1800 UTC
Vent 12 kt de ouest
Visibilité: 10 km
Nuages fragmentés à une hauteur de 25000 ft
A partir de 22 à 0500 UTC
Vent 7 kt de ouest
Visibilité: 10 km
Nuages épars à une hauteur de 25000 ft

TAF: MMHO 210307Z 2106/2206 27007KT P6SM SCT250 FM211800 28012KT P6SM BKN250 FM220500 27007KT P6SM SCT250

Observations et prévisions météorologiques de plus de 4000 aéroports (messages METAR et TAF).

Les stations disponibles sont représentées par des disques jaunes et rouges sur la carte.

Passer la souris dessus pour voir le nom de la station.

Cliquer dessus pour voir les observations et prévisions météorologiques.

Pour changer de carte: cliquez sur les boutons verts avec une croix noire pour zoomer, sur le bouton vert avec un tiret pour effectuer un zoom arrière, ou sur les flèches vertes pour les cartes adjacentes.


METAR-TAF: